sensor_id;sensor_type;location;lat;lon;timestamp;P1;durP1;ratioP1;P2;durP2;ratioP2
18407;SDS011;9330;52.210;21.174;2023-06-22T00:01:16;24.65;;;22.65;;
18407;SDS011;9330;52.210;21.174;2023-06-22T00:03:42;25.27;;;23.17;;
18407;SDS011;9330;52.210;21.174;2023-06-22T00:06:09;26.13;;;23.92;;
18407;SDS011;9330;52.210;21.174;2023-06-22T00:08:36;24.77;;;22.67;;
18407;SDS011;9330;52.210;21.174;2023-06-22T00:11:03;24.98;;;22.88;;
18407;SDS011;9330;52.210;21.174;2023-06-22T00:13:31;25.48;;;23.38;;
18407;SDS011;9330;52.210;21.174;2023-06-22T00:15:58;27.00;;;24.55;;
18407;SDS011;9330;52.210;21.174;2023-06-22T00:18:25;25.70;;;23.50;;
18407;SDS011;9330;52.210;21.174;2023-06-22T00:20:53;24.30;;;22.38;;
18407;SDS011;9330;52.210;21.174;2023-06-22T00:23:22;24.88;;;22.58;;
18407;SDS011;9330;52.210;21.174;2023-06-22T00:25:49;24.73;;;22.63;;
18407;SDS011;9330;52.210;21.174;2023-06-22T00:28:16;25.15;;;23.05;;
18407;SDS011;9330;52.210;21.174;2023-06-22T00:30:45;26.10;;;23.90;;
18407;SDS011;9330;52.210;21.174;2023-06-22T00:33:12;25.67;;;23.30;;
18407;SDS011;9330;52.210;21.174;2023-06-22T00:35:41;27.30;;;25.10;;
18407;SDS011;9330;52.210;21.174;2023-06-22T00:38:09;26.98;;;24.67;;
18407;SDS011;9330;52.210;21.174;2023-06-22T00:40:36;26.42;;;24.13;;
18407;SDS011;9330;52.210;21.174;2023-06-22T00:43:03;27.33;;;25.02;;
18407;SDS011;9330;52.210;21.174;2023-06-22T00:45:31;27.00;;;24.75;;
18407;SDS011;9330;52.210;21.174;2023-06-22T00:47:59;26.98;;;24.65;;
18407;SDS011;9330;52.210;21.174;2023-06-22T00:50:28;27.13;;;24.65;;
18407;SDS011;9330;52.210;21.174;2023-06-22T00:52:59;26.92;;;24.65;;
18407;SDS011;9330;52.210;21.174;2023-06-22T00:55:33;27.33;;;24.88;;
18407;SDS011;9330;52.210;21.174;2023-06-22T00:58:01;27.30;;;25.00;;
18407;SDS011;9330;52.210;21.174;2023-06-22T01:00:28;26.52;;;24.27;;
18407;SDS011;9330;52.210;21.174;2023-06-22T01:02:55;26.38;;;24.17;;
18407;SDS011;9330;52.210;21.174;2023-06-22T01:05:23;25.60;;;23.50;;
18407;SDS011;9330;52.210;21.174;2023-06-22T01:07:54;27.67;;;25.17;;
18407;SDS011;9330;52.210;21.174;2023-06-22T01:10:32;26.52;;;24.33;;
18407;SDS011;9330;52.210;21.174;2023-06-22T01:13:04;26.50;;;24.23;;
18407;SDS011;9330;52.210;21.174;2023-06-22T01:15:36;27.20;;;24.90;;
18407;SDS011;9330;52.210;21.174;2023-06-22T01:18:06;26.85;;;24.55;;
18407;SDS011;9330;52.210;21.174;2023-06-22T01:20:37;27.13;;;24.75;;
18407;SDS011;9330;52.210;21.174;2023-06-22T01:23:09;27.27;;;24.88;;
18407;SDS011;9330;52.210;21.174;2023-06-22T01:25:43;27.65;;;25.23;;
18407;SDS011;9330;52.210;21.174;2023-06-22T01:28:19;27.02;;;24.58;;
18407;SDS011;9330;52.210;21.174;2023-06-22T01:30:58;28.35;;;25.88;;
18407;SDS011;9330;52.210;21.174;2023-06-22T01:33:31;28.45;;;25.95;;
18407;SDS011;9330;52.210;21.174;2023-06-22T01:36:01;27.48;;;24.98;;
18407;SDS011;9330;52.210;21.174;2023-06-22T01:38:29;28.80;;;26.30;;
18407;SDS011;9330;52.210;21.174;2023-06-22T01:40:57;25.75;;;23.55;;
18407;SDS011;9330;52.210;21.174;2023-06-22T01:43:24;26.30;;;24.13;;
18407;SDS011;9330;52.210;21.174;2023-06-22T01:45:54;26.75;;;24.45;;
18407;SDS011;9330;52.210;21.174;2023-06-22T01:48:21;26.80;;;24.42;;
18407;SDS011;9330;52.210;21.174;2023-06-22T01:50:50;25.98;;;23.80;;
18407;SDS011;9330;52.210;21.174;2023-06-22T01:53:18;27.13;;;24.63;;
18407;SDS011;9330;52.210;21.174;2023-06-22T01:55:46;25.60;;;23.50;;
18407;SDS011;9330;52.210;21.174;2023-06-22T01:58:13;25.92;;;23.75;;
18407;SDS011;9330;52.210;21.174;2023-06-22T02:00:41;27.55;;;25.23;;
18407;SDS011;9330;52.210;21.174;2023-06-22T02:03:14;26.98;;;24.67;;
18407;SDS011;9330;52.210;21.174;2023-06-22T02:05:46;26.23;;;24.02;;
18407;SDS011;9330;52.210;21.174;2023-06-22T02:08:17;26.83;;;24.52;;
18407;SDS011;9330;52.210;21.174;2023-06-22T02:10:47;25.63;;;23.52;;
18407;SDS011;9330;52.210;21.174;2023-06-22T02:13:17;25.60;;;23.25;;
18407;SDS011;9330;52.210;21.174;2023-06-22T02:15:45;26.48;;;24.27;;
18407;SDS011;9330;52.210;21.174;2023-06-22T02:18:14;27.42;;;25.15;;
18407;SDS011;9330;52.210;21.174;2023-06-22T02:20:41;26.20;;;24.00;;
18407;SDS011;9330;52.210;21.174;2023-06-22T02:23:09;26.58;;;24.17;;
18407;SDS011;9330;52.210;21.174;2023-06-22T02:25:35;26.25;;;23.95;;
18407;SDS011;9330;52.210;21.174;2023-06-22T02:28:02;26.38;;;24.17;;
18407;SDS011;9330;52.210;21.174;2023-06-22T02:30:30;26.50;;;24.20;;
18407;SDS011;9330;52.210;21.174;2023-06-22T02:32:57;26.42;;;24.13;;
18407;SDS011;9330;52.210;21.174;2023-06-22T02:35:26;26.08;;;23.88;;
18407;SDS011;9330;52.210;21.174;2023-06-22T02:37:56;24.63;;;22.58;;
18407;SDS011;9330;52.210;21.174;2023-06-22T02:40:24;24.73;;;22.38;;
18407;SDS011;9330;52.210;21.174;2023-06-22T02:42:51;26.60;;;24.27;;
18407;SDS011;9330;52.210;21.174;2023-06-22T02:45:18;27.80;;;25.33;;
18407;SDS011;9330;52.210;21.174;2023-06-22T02:47:45;28.80;;;26.20;;
18407;SDS011;9330;52.210;21.174;2023-06-22T02:50:12;27.50;;;25.00;;
18407;SDS011;9330;52.210;21.174;2023-06-22T02:52:41;27.48;;;25.17;;
18407;SDS011;9330;52.210;21.174;2023-06-22T02:55:08;28.00;;;25.58;;
18407;SDS011;9330;52.210;21.174;2023-06-22T02:57:35;24.77;;;22.77;;
18407;SDS011;9330;52.210;21.174;2023-06-22T03:00:02;26.15;;;23.95;;
18407;SDS011;9330;52.210;21.174;2023-06-22T03:02:41;25.73;;;23.60;;
18407;SDS011;9330;52.210;21.174;2023-06-22T03:05:08;27.50;;;25.20;;
18407;SDS011;9330;52.210;21.174;2023-06-22T03:07:38;26.58;;;24.38;;
18407;SDS011;9330;52.210;21.174;2023-06-22T03:10:07;28.52;;;26.13;;
18407;SDS011;9330;52.210;21.174;2023-06-22T03:12:35;25.83;;;23.60;;
18407;SDS011;9330;52.210;21.174;2023-06-22T03:15:03;25.38;;;23.17;;
18407;SDS011;9330;52.210;21.174;2023-06-22T03:17:31;27.95;;;25.38;;
18407;SDS011;9330;52.210;21.174;2023-06-22T03:19:57;27.55;;;25.13;;
18407;SDS011;9330;52.210;21.174;2023-06-22T03:22:24;25.75;;;23.40;;
18407;SDS011;9330;52.210;21.174;2023-06-22T03:24:52;24.95;;;22.92;;
18407;SDS011;9330;52.210;21.174;2023-06-22T03:27:19;26.25;;;23.90;;
18407;SDS011;9330;52.210;21.174;2023-06-22T03:29:46;27.35;;;25.02;;
18407;SDS011;9330;52.210;21.174;2023-06-22T03:32:13;27.98;;;25.58;;
18407;SDS011;9330;52.210;21.174;2023-06-22T03:34:40;25.92;;;23.73;;
18407;SDS011;9330;52.210;21.174;2023-06-22T03:37:12;25.02;;;22.92;;
18407;SDS011;9330;52.210;21.174;2023-06-22T03:39:39;29.25;;;26.38;;
18407;SDS011;9330;52.210;21.174;2023-06-22T03:42:08;29.70;;;26.90;;
18407;SDS011;9330;52.210;21.174;2023-06-22T03:44:34;29.92;;;27.33;;
18407;SDS011;9330;52.210;21.174;2023-06-22T03:47:02;30.58;;;27.88;;
18407;SDS011;9330;52.210;21.174;2023-06-22T03:49:31;34.03;;;30.83;;
18407;SDS011;9330;52.210;21.174;2023-06-22T03:51:59;31.83;;;29.00;;
18407;SDS011;9330;52.210;21.174;2023-06-22T03:54:26;36.30;;;32.97;;
18407;SDS011;9330;52.210;21.174;2023-06-22T03:56:53;38.13;;;34.47;;
18407;SDS011;9330;52.210;21.174;2023-06-22T03:59:21;39.75;;;35.90;;
18407;SDS011;9330;52.210;21.174;2023-06-22T04:01:48;40.80;;;37.03;;
18407;SDS011;9330;52.210;21.174;2023-06-22T04:04:15;36.20;;;32.80;;
18407;SDS011;9330;52.210;21.174;2023-06-22T04:06:42;41.03;;;37.17;;
18407;SDS011;9330;52.210;21.174;2023-06-22T04:09:09;36.42;;;32.90;;
18407;SDS011;9330;52.210;21.174;2023-06-22T04:11:36;37.63;;;33.97;;
18407;SDS011;9330;52.210;21.174;2023-06-22T04:14:03;33.35;;;30.17;;
18407;SDS011;9330;52.210;21.174;2023-06-22T04:16:31;36.97;;;33.55;;
18407;SDS011;9330;52.210;21.174;2023-06-22T04:18:59;37.00;;;33.60;;
18407;SDS011;9330;52.210;21.174;2023-06-22T04:21:26;35.97;;;32.75;;
18407;SDS011;9330;52.210;21.174;2023-06-22T04:23:53;35.33;;;31.90;;
18407;SDS011;9330;52.210;21.174;2023-06-22T04:26:20;34.35;;;31.08;;
18407;SDS011;9330;52.210;21.174;2023-06-22T04:28:47;31.65;;;28.85;;
18407;SDS011;9330;52.210;21.174;2023-06-22T04:31:16;35.08;;;31.95;;
18407;SDS011;9330;52.210;21.174;2023-06-22T04:33:45;35.25;;;31.95;;
18407;SDS011;9330;52.210;21.174;2023-06-22T04:36:12;34.88;;;31.75;;
18407;SDS011;9330;52.210;21.174;2023-06-22T04:38:39;33.53;;;30.52;;
18407;SDS011;9330;52.210;21.174;2023-06-22T04:41:07;33.65;;;30.63;;
18407;SDS011;9330;52.210;21.174;2023-06-22T04:43:48;34.33;;;31.08;;
18407;SDS011;9330;52.210;21.174;2023-06-22T04:46:18;32.22;;;29.13;;
18407;SDS011;9330;52.210;21.174;2023-06-22T04:48:47;34.33;;;30.83;;
18407;SDS011;9330;52.210;21.174;2023-06-22T04:51:14;33.75;;;30.65;;
18407;SDS011;9330;52.210;21.174;2023-06-22T04:53:41;30.85;;;28.10;;
18407;SDS011;9330;52.210;21.174;2023-06-22T04:56:08;31.20;;;28.13;;
18407;SDS011;9330;52.210;21.174;2023-06-22T04:58:34;32.50;;;29.58;;
18407;SDS011;9330;52.210;21.174;2023-06-22T05:01:01;30.33;;;27.42;;
18407;SDS011;9330;52.210;21.174;2023-06-22T05:03:28;29.85;;;27.05;;
18407;SDS011;9330;52.210;21.174;2023-06-22T05:05:57;29.30;;;26.48;;
18407;SDS011;9330;52.210;21.174;2023-06-22T05:08:23;29.88;;;27.13;;
18407;SDS011;9330;52.210;21.174;2023-06-22T05:10:53;32.38;;;29.48;;
18407;SDS011;9330;52.210;21.174;2023-06-22T05:13:20;32.58;;;29.58;;
18407;SDS011;9330;52.210;21.174;2023-06-22T05:15:51;31.35;;;28.25;;
18407;SDS011;9330;52.210;21.174;2023-06-22T05:18:26;34.50;;;30.85;;
18407;SDS011;9330;52.210;21.174;2023-06-22T05:20:54;31.98;;;29.00;;
18407;SDS011;9330;52.210;21.174;2023-06-22T05:23:22;30.13;;;27.23;;
18407;SDS011;9330;52.210;21.174;2023-06-22T05:25:49;32.22;;;29.17;;
18407;SDS011;9330;52.210;21.174;2023-06-22T05:28:16;30.70;;;27.65;;
18407;SDS011;9330;52.210;21.174;2023-06-22T05:30:47;29.27;;;26.50;;
18407;SDS011;9330;52.210;21.174;2023-06-22T05:33:14;29.85;;;26.98;;
18407;SDS011;9330;52.210;21.174;2023-06-22T05:35:41;30.73;;;27.88;;
18407;SDS011;9330;52.210;21.174;2023-06-22T05:38:08;29.60;;;26.73;;
18407;SDS011;9330;52.210;21.174;2023-06-22T05:40:36;33.10;;;29.83;;
18407;SDS011;9330;52.210;21.174;2023-06-22T05:43:03;32.20;;;29.20;;
18407;SDS011;9330;52.210;21.174;2023-06-22T05:45:30;30.38;;;27.45;;
18407;SDS011;9330;52.210;21.174;2023-06-22T05:47:57;30.90;;;28.00;;
18407;SDS011;9330;52.210;21.174;2023-06-22T05:50:24;30.05;;;27.33;;
18407;SDS011;9330;52.210;21.174;2023-06-22T05:52:50;27.95;;;25.05;;
18407;SDS011;9330;52.210;21.174;2023-06-22T05:55:17;28.98;;;26.08;;
18407;SDS011;9330;52.210;21.174;2023-06-22T05:57:46;29.40;;;26.55;;
18407;SDS011;9330;52.210;21.174;2023-06-22T06:00:13;27.02;;;24.52;;
18407;SDS011;9330;52.210;21.174;2023-06-22T06:02:40;26.67;;;24.15;;
18407;SDS011;9330;52.210;21.174;2023-06-22T06:05:09;28.80;;;26.20;;
18407;SDS011;9330;52.210;21.174;2023-06-22T06:07:38;28.13;;;25.33;;
18407;SDS011;9330;52.210;21.174;2023-06-22T06:10:05;26.90;;;24.30;;
18407;SDS011;9330;52.210;21.174;2023-06-22T06:12:33;27.23;;;24.65;;
18407;SDS011;9330;52.210;21.174;2023-06-22T06:15:01;26.98;;;24.27;;
18407;SDS011;9330;52.210;21.174;2023-06-22T06:17:29;26.17;;;23.48;;
18407;SDS011;9330;52.210;21.174;2023-06-22T06:19:55;25.75;;;23.20;;
18407;SDS011;9330;52.210;21.174;2023-06-22T06:22:22;26.17;;;23.77;;
18407;SDS011;9330;52.210;21.174;2023-06-22T06:24:49;27.42;;;24.88;;
18407;SDS011;9330;52.210;21.174;2023-06-22T06:27:16;28.48;;;25.85;;
18407;SDS011;9330;52.210;21.174;2023-06-22T06:29:44;24.48;;;22.17;;
18407;SDS011;9330;52.210;21.174;2023-06-22T06:32:14;25.25;;;22.75;;
18407;SDS011;9330;52.210;21.174;2023-06-22T06:34:41;30.80;;;27.70;;
18407;SDS011;9330;52.210;21.174;2023-06-22T06:37:08;34.17;;;30.88;;
18407;SDS011;9330;52.210;21.174;2023-06-22T06:39:35;33.70;;;30.40;;
18407;SDS011;9330;52.210;21.174;2023-06-22T06:42:02;30.20;;;27.23;;
18407;SDS011;9330;52.210;21.174;2023-06-22T06:44:30;29.80;;;26.95;;
18407;SDS011;9330;52.210;21.174;2023-06-22T06:46:57;28.52;;;25.83;;
18407;SDS011;9330;52.210;21.174;2023-06-22T06:49:25;28.17;;;25.63;;
18407;SDS011;9330;52.210;21.174;2023-06-22T06:51:52;27.27;;;24.67;;
18407;SDS011;9330;52.210;21.174;2023-06-22T06:54:20;24.80;;;22.45;;
18407;SDS011;9330;52.210;21.174;2023-06-22T06:56:48;23.38;;;21.27;;
18407;SDS011;9330;52.210;21.174;2023-06-22T06:59:15;23.50;;;21.30;;
18407;SDS011;9330;52.210;21.174;2023-06-22T07:01:42;25.02;;;22.73;;
18407;SDS011;9330;52.210;21.174;2023-06-22T07:04:09;24.00;;;21.90;;
18407;SDS011;9330;52.210;21.174;2023-06-22T07:06:37;24.88;;;22.50;;
18407;SDS011;9330;52.210;21.174;2023-06-22T07:09:04;23.88;;;21.63;;
18407;SDS011;9330;52.210;21.174;2023-06-22T07:11:31;24.67;;;22.27;;
18407;SDS011;9330;52.210;21.174;2023-06-22T07:14:01;24.60;;;22.20;;
18407;SDS011;9330;52.210;21.174;2023-06-22T07:16:28;22.55;;;20.42;;
18407;SDS011;9330;52.210;21.174;2023-06-22T07:18:56;21.25;;;19.25;;
18407;SDS011;9330;52.210;21.174;2023-06-22T07:21:23;19.98;;;17.98;;
18407;SDS011;9330;52.210;21.174;2023-06-22T07:23:51;19.35;;;17.65;;
18407;SDS011;9330;52.210;21.174;2023-06-22T07:26:19;19.67;;;17.83;;
18407;SDS011;9330;52.210;21.174;2023-06-22T07:28:46;19.08;;;17.17;;
18407;SDS011;9330;52.210;21.174;2023-06-22T07:31:12;17.33;;;15.73;;
18407;SDS011;9330;52.210;21.174;2023-06-22T07:33:39;15.20;;;13.88;;
18407;SDS011;9330;52.210;21.174;2023-06-22T07:36:06;16.42;;;14.82;;
18407;SDS011;9330;52.210;21.174;2023-06-22T07:38:33;17.13;;;14.45;;
18407;SDS011;9330;52.210;21.174;2023-06-22T07:41:02;17.05;;;15.45;;
18407;SDS011;9330;52.210;21.174;2023-06-22T07:43:30;17.08;;;15.48;;
18407;SDS011;9330;52.210;21.174;2023-06-22T07:45:58;15.38;;;13.98;;
18407;SDS011;9330;52.210;21.174;2023-06-22T07:48:25;14.85;;;13.45;;
18407;SDS011;9330;52.210;21.174;2023-06-22T07:50:52;15.35;;;13.75;;
18407;SDS011;9330;52.210;21.174;2023-06-22T07:53:18;13.75;;;12.55;;
18407;SDS011;9330;52.210;21.174;2023-06-22T07:55:46;14.02;;;12.73;;
18407;SDS011;9330;52.210;21.174;2023-06-22T07:58:14;12.18;;;11.07;;
18407;SDS011;9330;52.210;21.174;2023-06-22T08:00:43;13.10;;;11.80;;
18407;SDS011;9330;52.210;21.174;2023-06-22T08:03:10;12.15;;;10.95;;
18407;SDS011;9330;52.210;21.174;2023-06-22T08:05:37;11.15;;;10.23;;
18407;SDS011;9330;52.210;21.174;2023-06-22T08:08:04;11.50;;;10.23;;
18407;SDS011;9330;52.210;21.174;2023-06-22T08:10:31;10.70;;;9.60;;
18407;SDS011;9330;52.210;21.174;2023-06-22T08:12:58;11.07;;;9.93;;
18407;SDS011;9330;52.210;21.174;2023-06-22T08:15:27;10.77;;;9.77;;
18407;SDS011;9330;52.210;21.174;2023-06-22T08:17:54;10.57;;;9.57;;
18407;SDS011;9330;52.210;21.174;2023-06-22T08:20:22;12.00;;;8.77;;
18407;SDS011;9330;52.210;21.174;2023-06-22T08:22:49;9.43;;;8.55;;
18407;SDS011;9330;52.210;21.174;2023-06-22T08:25:16;9.07;;;8.18;;
18407;SDS011;9330;52.210;21.174;2023-06-22T08:27:44;7.80;;;7.07;;
18407;SDS011;9330;52.210;21.174;2023-06-22T08:30:12;6.97;;;6.28;;
18407;SDS011;9330;52.210;21.174;2023-06-22T08:32:40;7.03;;;6.32;;
18407;SDS011;9330;52.210;21.174;2023-06-22T08:35:07;7.78;;;6.72;;
18407;SDS011;9330;52.210;21.174;2023-06-22T08:37:35;6.53;;;5.93;;
18407;SDS011;9330;52.210;21.174;2023-06-22T08:40:04;6.95;;;5.80;;
18407;SDS011;9330;52.210;21.174;2023-06-22T08:42:34;6.80;;;6.20;;
18407;SDS011;9330;52.210;21.174;2023-06-22T08:45:01;6.20;;;5.60;;
18407;SDS011;9330;52.210;21.174;2023-06-22T08:47:28;7.60;;;6.63;;
18407;SDS011;9330;52.210;21.174;2023-06-22T08:49:56;6.35;;;5.75;;
18407;SDS011;9330;52.210;21.174;2023-06-22T08:52:23;4.90;;;4.50;;
18407;SDS011;9330;52.210;21.174;2023-06-22T08:54:51;5.28;;;4.32;;
18407;SDS011;9330;52.210;21.174;2023-06-22T08:57:17;5.53;;;4.38;;
18407;SDS011;9330;52.210;21.174;2023-06-22T08:59:44;4.53;;;4.13;;
18407;SDS011;9330;52.210;21.174;2023-06-22T09:02:11;7.03;;;4.45;;
18407;SDS011;9330;52.210;21.174;2023-06-22T09:04:38;4.88;;;4.38;;
18407;SDS011;9330;52.210;21.174;2023-06-22T09:07:06;5.50;;;5.00;;
18407;SDS011;9330;52.210;21.174;2023-06-22T09:09:33;6.80;;;6.10;;
18407;SDS011;9330;52.210;21.174;2023-06-22T09:12:00;4.90;;;4.05;;
18407;SDS011;9330;52.210;21.174;2023-06-22T09:14:27;4.72;;;4.28;;
18407;SDS011;9330;52.210;21.174;2023-06-22T09:16:53;4.90;;;4.30;;
18407;SDS011;9330;52.210;21.174;2023-06-22T09:19:20;4.60;;;4.20;;
18407;SDS011;9330;52.210;21.174;2023-06-22T09:21:47;5.07;;;3.95;;
18407;SDS011;9330;52.210;21.174;2023-06-22T09:24:15;8.40;;;4.22;;
18407;SDS011;9330;52.210;21.174;2023-06-22T09:26:42;4.25;;;3.40;;
18407;SDS011;9330;52.210;21.174;2023-06-22T09:29:09;5.50;;;3.97;;
18407;SDS011;9330;52.210;21.174;2023-06-22T09:31:35;4.47;;;3.97;;
18407;SDS011;9330;52.210;21.174;2023-06-22T09:34:02;4.60;;;3.65;;
18407;SDS011;9330;52.210;21.174;2023-06-22T09:36:29;5.80;;;3.90;;
18407;SDS011;9330;52.210;21.174;2023-06-22T09:38:56;5.82;;;3.50;;
18407;SDS011;9330;52.210;21.174;2023-06-22T09:41:25;5.30;;;3.40;;
18407;SDS011;9330;52.210;21.174;2023-06-22T09:43:51;4.53;;;3.35;;
18407;SDS011;9330;52.210;21.174;2023-06-22T09:46:19;5.72;;;2.70;;
18407;SDS011;9330;52.210;21.174;2023-06-22T09:48:47;4.72;;;2.85;;
18407;SDS011;9330;52.210;21.174;2023-06-22T09:51:14;6.47;;;3.33;;
18407;SDS011;9330;52.210;21.174;2023-06-22T09:53:41;4.20;;;2.90;;
18407;SDS011;9330;52.210;21.174;2023-06-22T09:56:09;4.53;;;3.08;;
18407;SDS011;9330;52.210;21.174;2023-06-22T09:58:41;6.38;;;3.00;;
18407;SDS011;9330;52.210;21.174;2023-06-22T10:01:08;3.10;;;2.80;;
18407;SDS011;9330;52.210;21.174;2023-06-22T10:03:36;4.32;;;2.90;;
18407;SDS011;9330;52.210;21.174;2023-06-22T10:06:03;3.88;;;2.90;;
18407;SDS011;9330;52.210;21.174;2023-06-22T10:08:29;3.35;;;2.67;;
18407;SDS011;9330;52.210;21.174;2023-06-22T10:10:56;4.72;;;2.60;;
18407;SDS011;9330;52.210;21.174;2023-06-22T10:13:23;5.72;;;2.50;;
18407;SDS011;9330;52.210;21.174;2023-06-22T10:15:51;2.78;;;2.53;;
18407;SDS011;9330;52.210;21.174;2023-06-22T10:18:18;3.83;;;2.85;;
18407;SDS011;9330;52.210;21.174;2023-06-22T10:20:47;3.97;;;3.00;;
18407;SDS011;9330;52.210;21.174;2023-06-22T10:23:16;4.85;;;2.97;;
18407;SDS011;9330;52.210;21.174;2023-06-22T10:25:43;3.25;;;2.95;;
18407;SDS011;9330;52.210;21.174;2023-06-22T10:28:10;5.60;;;3.00;;
18407;SDS011;9330;52.210;21.174;2023-06-22T10:30:37;5.75;;;3.25;;
18407;SDS011;9330;52.210;21.174;2023-06-22T10:33:07;3.88;;;3.13;;
18407;SDS011;9330;52.210;21.174;2023-06-22T10:35:34;3.55;;;2.78;;
18407;SDS011;9330;52.210;21.174;2023-06-22T10:38:02;2.90;;;2.58;;
18407;SDS011;9330;52.210;21.174;2023-06-22T10:40:30;4.00;;;3.13;;
18407;SDS011;9330;52.210;21.174;2023-06-22T10:42:56;3.47;;;3.03;;
18407;SDS011;9330;52.210;21.174;2023-06-22T10:45:23;5.47;;;3.20;;
18407;SDS011;9330;52.210;21.174;2023-06-22T10:47:50;4.18;;;3.03;;
18407;SDS011;9330;52.210;21.174;2023-06-22T10:50:18;4.22;;;3.20;;
18407;SDS011;9330;52.210;21.174;2023-06-22T10:52:46;4.15;;;3.13;;
18407;SDS011;9330;52.210;21.174;2023-06-22T10:55:12;3.58;;;2.92;;
18407;SDS011;9330;52.210;21.174;2023-06-22T10:57:39;5.07;;;3.47;;
18407;SDS011;9330;52.210;21.174;2023-06-22T11:00:09;3.95;;;3.20;;
18407;SDS011;9330;52.210;21.174;2023-06-22T11:02:37;4.13;;;3.67;;
18407;SDS011;9330;52.210;21.174;2023-06-22T11:05:04;3.80;;;3.30;;
18407;SDS011;9330;52.210;21.174;2023-06-22T11:07:33;3.50;;;3.20;;
18407;SDS011;9330;52.210;21.174;2023-06-22T11:10:00;4.45;;;3.22;;
18407;SDS011;9330;52.210;21.174;2023-06-22T11:12:26;4.40;;;3.50;;
18407;SDS011;9330;52.210;21.174;2023-06-22T11:14:53;3.60;;;3.30;;
18407;SDS011;9330;52.210;21.174;2023-06-22T11:17:22;4.25;;;3.85;;
18407;SDS011;9330;52.210;21.174;2023-06-22T11:19:49;10.38;;;3.50;;
18407;SDS011;9330;52.210;21.174;2023-06-22T11:22:15;3.72;;;3.40;;
18407;SDS011;9330;52.210;21.174;2023-06-22T11:24:44;5.05;;;3.28;;
18407;SDS011;9330;52.210;21.174;2023-06-22T11:27:10;6.78;;;3.65;;
18407;SDS011;9330;52.210;21.174;2023-06-22T11:29:37;4.05;;;3.42;;
18407;SDS011;9330;52.210;21.174;2023-06-22T11:32:05;4.47;;;3.70;;
18407;SDS011;9330;52.210;21.174;2023-06-22T11:34:32;4.38;;;3.72;;
18407;SDS011;9330;52.210;21.174;2023-06-22T11:36:59;5.65;;;3.17;;
18407;SDS011;9330;52.210;21.174;2023-06-22T11:39:26;3.60;;;3.20;;
18407;SDS011;9330;52.210;21.174;2023-06-22T11:41:54;5.75;;;3.30;;
18407;SDS011;9330;52.210;21.174;2023-06-22T11:44:21;3.45;;;3.08;;
18407;SDS011;9330;52.210;21.174;2023-06-22T11:46:48;4.03;;;3.25;;
18407;SDS011;9330;52.210;21.174;2023-06-22T11:49:15;3.38;;;3.08;;
18407;SDS011;9330;52.210;21.174;2023-06-22T11:51:42;3.70;;;3.40;;
18407;SDS011;9330;52.210;21.174;2023-06-22T11:54:09;4.80;;;3.47;;
18407;SDS011;9330;52.210;21.174;2023-06-22T11:56:36;5.63;;;3.15;;
18407;SDS011;9330;52.210;21.174;2023-06-22T11:59:04;3.65;;;3.35;;
18407;SDS011;9330;52.210;21.174;2023-06-22T12:01:31;3.65;;;3.35;;
18407;SDS011;9330;52.210;21.174;2023-06-22T12:03:58;3.67;;;3.28;;
18407;SDS011;9330;52.210;21.174;2023-06-22T12:06:25;4.60;;;3.70;;
18407;SDS011;9330;52.210;21.174;2023-06-22T12:08:52;3.60;;;3.22;;
18407;SDS011;9330;52.210;21.174;2023-06-22T12:11:19;3.47;;;3.10;;
18407;SDS011;9330;52.210;21.174;2023-06-22T12:13:46;3.85;;;3.00;;
18407;SDS011;9330;52.210;21.174;2023-06-22T12:16:14;3.83;;;3.20;;
18407;SDS011;9330;52.210;21.174;2023-06-22T12:18:41;5.35;;;3.47;;
18407;SDS011;9330;52.210;21.174;2023-06-22T12:21:07;4.13;;;3.50;;
18407;SDS011;9330;52.210;21.174;2023-06-22T12:23:34;3.88;;;3.28;;
18407;SDS011;9330;52.210;21.174;2023-06-22T12:26:01;4.68;;;3.58;;
18407;SDS011;9330;52.210;21.174;2023-06-22T12:28:28;5.85;;;3.58;;
18407;SDS011;9330;52.210;21.174;2023-06-22T12:30:54;4.85;;;3.60;;
18407;SDS011;9330;52.210;21.174;2023-06-22T12:33:23;4.88;;;3.70;;
18407;SDS011;9330;52.210;21.174;2023-06-22T12:35:49;5.38;;;3.60;;
18407;SDS011;9330;52.210;21.174;2023-06-22T12:38:16;5.20;;;3.83;;
18407;SDS011;9330;52.210;21.174;2023-06-22T12:40:43;3.80;;;3.40;;
18407;SDS011;9330;52.210;21.174;2023-06-22T12:43:12;3.72;;;3.42;;
18407;SDS011;9330;52.210;21.174;2023-06-22T12:45:38;3.95;;;3.50;;
18407;SDS011;9330;52.210;21.174;2023-06-22T12:48:05;5.30;;;3.88;;
18407;SDS011;9330;52.210;21.174;2023-06-22T12:50:34;4.75;;;3.50;;
18407;SDS011;9330;52.210;21.174;2023-06-22T12:53:01;5.00;;;3.28;;
18407;SDS011;9330;52.210;21.174;2023-06-22T12:55:29;5.63;;;3.53;;
18407;SDS011;9330;52.210;21.174;2023-06-22T12:57:56;4.18;;;3.78;;
18407;SDS011;9330;52.210;21.174;2023-06-22T13:00:22;3.67;;;3.38;;
18407;SDS011;9330;52.210;21.174;2023-06-22T13:02:49;3.70;;;3.38;;
18407;SDS011;9330;52.210;21.174;2023-06-22T13:05:16;3.78;;;3.47;;
18407;SDS011;9330;52.210;21.174;2023-06-22T13:07:44;3.70;;;3.40;;
18407;SDS011;9330;52.210;21.174;2023-06-22T13:10:11;4.30;;;3.28;;
18407;SDS011;9330;52.210;21.174;2023-06-22T13:12:38;3.90;;;3.50;;
18407;SDS011;9330;52.210;21.174;2023-06-22T13:15:06;4.00;;;3.55;;
18407;SDS011;9330;52.210;21.174;2023-06-22T13:17:33;3.88;;;3.53;;
18407;SDS011;9330;52.210;21.174;2023-06-22T13:20:00;3.70;;;3.40;;
18407;SDS011;9330;52.210;21.174;2023-06-22T13:22:29;4.45;;;3.92;;
18407;SDS011;9330;52.210;21.174;2023-06-22T13:24:59;3.70;;;3.40;;
18407;SDS011;9330;52.210;21.174;2023-06-22T13:27:27;4.75;;;4.03;;
18407;SDS011;9330;52.210;21.174;2023-06-22T13:29:53;4.72;;;3.03;;
18407;SDS011;9330;52.210;21.174;2023-06-22T13:32:20;3.22;;;2.83;;
18407;SDS011;9330;52.210;21.174;2023-06-22T13:34:47;4.03;;;3.53;;
18407;SDS011;9330;52.210;21.174;2023-06-22T13:37:14;3.38;;;3.08;;
18407;SDS011;9330;52.210;21.174;2023-06-22T13:39:41;4.28;;;3.35;;
18407;SDS011;9330;52.210;21.174;2023-06-22T13:42:09;4.22;;;3.83;;
18407;SDS011;9330;52.210;21.174;2023-06-22T13:44:36;4.38;;;3.63;;
18407;SDS011;9330;52.210;21.174;2023-06-22T13:47:03;5.15;;;3.85;;
18407;SDS011;9330;52.210;21.174;2023-06-22T13:49:30;4.45;;;3.65;;
18407;SDS011;9330;52.210;21.174;2023-06-22T13:51:57;3.95;;;3.55;;
18407;SDS011;9330;52.210;21.174;2023-06-22T13:54:24;4.13;;;3.67;;
18407;SDS011;9330;52.210;21.174;2023-06-22T13:56:51;4.45;;;3.83;;
18407;SDS011;9330;52.210;21.174;2023-06-22T13:59:19;4.18;;;3.53;;
18407;SDS011;9330;52.210;21.174;2023-06-22T14:01:46;4.43;;;3.88;;
18407;SDS011;9330;52.210;21.174;2023-06-22T14:04:13;4.00;;;3.70;;
18407;SDS011;9330;52.210;21.174;2023-06-22T14:06:40;4.07;;;3.78;;
18407;SDS011;9330;52.210;21.174;2023-06-22T14:09:07;4.05;;;3.75;;
18407;SDS011;9330;52.210;21.174;2023-06-22T14:11:34;5.20;;;3.92;;
18407;SDS011;9330;52.210;21.174;2023-06-22T14:14:01;3.67;;;3.38;;
18407;SDS011;9330;52.210;21.174;2023-06-22T14:16:29;4.43;;;4.03;;
18407;SDS011;9330;52.210;21.174;2023-06-22T14:18:56;3.63;;;3.33;;
18407;SDS011;9330;52.210;21.174;2023-06-22T14:21:23;5.03;;;3.90;;
18407;SDS011;9330;52.210;21.174;2023-06-22T14:23:49;5.13;;;3.70;;
18407;SDS011;9330;52.210;21.174;2023-06-22T14:26:17;4.45;;;3.80;;
18407;SDS011;9330;52.210;21.174;2023-06-22T14:28:44;4.72;;;4.30;;
18407;SDS011;9330;52.210;21.174;2023-06-22T14:31:13;4.75;;;4.35;;
18407;SDS011;9330;52.210;21.174;2023-06-22T14:33:44;5.30;;;4.80;;
18407;SDS011;9330;52.210;21.174;2023-06-22T14:36:12;5.00;;;4.20;;